Time;durP1;ratioP1;P1;durP2;ratioP2;P2;SDS_P1;SDS_P2;PMS_P1;PMS_P2;Temp;Humidity;BMP_temperature;BMP_pressure;BME280_temperature;BME280_humidity;BME280_pressure;Samples;Min_cycle;Max_cycle;Signal;HPM_P1;HPM_P2
2022/12/28 00:02:08;;;;;;;9.82;4.60;;;6.90;99.90;;;;;;5035259;28;20654;-75
2022/12/28 00:04:34;;;;;;;11.18;4.85;;;6.90;99.90;;;;;;5036532;28;20217;-74
2022/12/28 00:06:59;;;;;;;10.45;4.82;;;6.90;99.90;;;;;;5041614;28;20184;-75
2022/12/28 00:09:25;;;;;;;13.27;4.47;;;6.80;99.90;;;;;;5033650;28;20176;-74
2022/12/28 00:11:51;;;;;;;14.57;5.22;;;6.90;99.90;;;;;;5066566;28;20199;-74
2022/12/28 00:14:16;;;;;;;10.73;5.10;;;6.90;99.90;;;;;;5033270;28;20385;-75
2022/12/28 00:16:43;;;;;;;13.10;5.18;;;6.90;99.90;;;;;;5035712;28;20187;-75
2022/12/28 00:19:14;;;;;;;16.33;5.30;;;6.80;99.90;;;;;;5034314;28;20262;-75
2022/12/28 00:21:44;;;;;;;11.60;4.90;;;6.80;99.90;;;;;;5015073;28;20180;-74
2022/12/28 00:24:19;;;;;;;9.93;5.13;;;6.80;99.90;;;;;;5032426;28;20183;-78
2022/12/28 00:26:45;;;;;;;12.88;5.38;;;6.80;99.90;;;;;;5035697;28;20179;-75
2022/12/28 00:29:10;;;;;;;13.90;5.32;;;6.80;99.90;;;;;;5066563;28;20664;-77
2022/12/28 00:31:36;;;;;;;13.27;5.68;;;6.70;99.90;;;;;;5050237;28;20591;-81
2022/12/28 00:34:03;;;;;;;11.05;5.22;;;6.80;99.90;;;;;;5027378;28;20225;-78
2022/12/28 00:36:30;;;;;;;11.40;5.53;;;6.80;99.90;;;;;;5030777;28;20199;-75
2022/12/28 00:38:56;;;;;;;11.30;5.47;;;6.80;99.90;;;;;;5030789;28;20279;-75
2022/12/28 00:41:22;;;;;;;10.95;5.45;;;6.80;99.90;;;;;;5031349;28;20270;-74
2022/12/28 00:43:48;;;;;;;10.20;4.88;;;6.80;99.90;;;;;;5033398;28;20184;-75
2022/12/28 00:46:13;;;;;;;12.18;5.53;;;6.80;99.90;;;;;;5066325;28;20180;-76
2022/12/28 00:48:39;;;;;;;14.80;6.47;;;6.80;99.90;;;;;;5049612;28;20207;-80
2022/12/28 00:51:09;;;;;;;13.00;5.65;;;6.80;99.90;;;;;;5029439;28;20552;-76
2022/12/28 00:53:35;;;;;;;11.25;5.13;;;6.80;99.90;;;;;;5033955;28;20222;-76
2022/12/28 00:56:10;;;;;;;16.33;5.85;;;6.80;99.90;;;;;;5034050;28;20196;-74
2022/12/28 00:58:37;;;;;;;12.57;5.50;;;6.80;99.90;;;;;;5048485;28;20175;-74
2022/12/28 01:01:04;;;;;;;12.40;5.55;;;6.80;99.90;;;;;;5033701;28;20647;-76
2022/12/28 01:03:31;;;;;;;14.30;5.90;;;6.80;99.90;;;;;;5033562;28;20231;-76
2022/12/28 01:05:57;;;;;;;10.70;5.60;;;6.80;99.90;;;;;;5046927;28;20187;-76
2022/12/28 01:08:22;;;;;;;10.40;5.47;;;6.80;99.90;;;;;;5043474;28;20460;-76
2022/12/28 01:10:48;;;;;;;10.38;5.90;;;6.80;99.90;;;;;;5031877;28;20190;-76
2022/12/28 01:13:14;;;;;;;9.90;5.28;;;6.80;99.90;;;;;;5032695;28;20216;-80
2022/12/28 01:15:40;;;;;;;14.63;5.90;;;6.80;99.90;;;;;;5043897;28;20202;-75
2022/12/28 01:18:05;;;;;;;12.07;5.65;;;6.80;99.90;;;;;;5017471;28;20172;-75
2022/12/28 01:20:31;;;;;;;14.18;6.28;;;6.80;99.90;;;;;;5033399;28;20635;-76
2022/12/28 01:22:57;;;;;;;13.00;5.68;;;6.70;99.90;;;;;;5034691;28;20187;-76
2022/12/28 01:25:23;;;;;;;9.10;5.20;;;6.80;99.90;;;;;;5048005;28;20184;-76
2022/12/28 01:27:48;;;;;;;12.98;6.25;;;6.80;99.90;;;;;;5032405;28;20184;-76
2022/12/28 01:30:14;;;;;;;14.25;5.80;;;6.80;99.90;;;;;;5032751;28;20279;-74
2022/12/28 01:32:40;;;;;;;12.77;6.10;;;6.80;99.90;;;;;;5049760;28;20632;-75
2022/12/28 01:35:06;;;;;;;12.43;5.97;;;6.80;99.90;;;;;;5033501;28;20214;-76
2022/12/28 01:37:34;;;;;;;13.95;6.45;;;6.80;99.90;;;;;;5034534;28;20203;-77
2022/12/28 01:39:59;;;;;;;12.30;5.18;;;6.80;99.90;;;;;;5032554;28;20620;-76
2022/12/28 01:42:25;;;;;;;15.60;6.05;;;6.80;99.90;;;;;;5031653;28;20275;-75
2022/12/28 01:44:51;;;;;;;11.63;6.18;;;6.80;99.90;;;;;;5048450;28;20187;-76
2022/12/28 01:47:27;;;;;;;11.75;5.80;;;6.80;99.90;;;;;;5061209;28;20184;-75
2022/12/28 01:50:08;;;;;;;14.35;5.93;;;6.80;99.90;;;;;;5030628;28;20226;-75
2022/12/28 01:52:50;;;;;;;7.82;5.50;;;6.80;99.90;;;;;;5033961;28;20172;-76
2022/12/28 01:55:25;;;;;;;16.23;6.68;;;6.80;99.90;;;;;;5030240;28;20234;-76
2022/12/28 01:58:02;;;;;;;9.45;5.05;;;6.80;99.90;;;;;;5029481;28;20172;-75
2022/12/28 02:00:28;;;;;;;14.85;5.65;;;6.80;99.90;;;;;;5036993;28;20184;-75
2022/12/28 02:03:01;;;;;;;11.13;5.82;;;6.70;99.90;;;;;;5014034;28;20751;-77
2022/12/28 02:05:32;;;;;;;15.20;6.35;;;6.80;99.90;;;;;;5025564;28;20636;-75
2022/12/28 02:08:04;;;;;;;12.38;6.32;;;6.80;99.90;;;;;;5038285;28;20176;-75
2022/12/28 02:10:32;;;;;;;9.07;5.97;;;6.80;99.90;;;;;;5029661;28;20190;-74
2022/12/28 02:12:59;;;;;;;11.68;6.38;;;6.80;99.90;;;;;;5066125;28;20282;-77
2022/12/28 02:15:26;;;;;;;15.20;6.43;;;6.80;99.90;;;;;;5064355;28;20188;-75
2022/12/28 02:17:52;;;;;;;12.10;6.30;;;6.80;99.90;;;;;;5032919;28;20183;-76
2022/12/28 02:20:18;;;;;;;11.15;6.40;;;6.80;99.90;;;;;;5063651;28;20636;-77
2022/12/28 02:23:06;;;;;;;14.63;6.35;;;6.80;99.90;;;;;;5031112;28;20176;-76
2022/12/28 02:26:06;;;;;;;14.70;6.90;;;6.80;99.90;;;;;;5032711;28;20249;-77
2022/12/28 02:29:00;;;;;;;12.82;6.63;;;6.80;99.90;;;;;;5033595;28;20179;-74
2022/12/28 02:31:54;;;;;;;12.15;6.50;;;6.80;99.90;;;;;;5047218;28;20180;-76
2022/12/28 02:34:33;;;;;;;9.95;6.65;;;6.80;99.90;;;;;;5046946;28;20218;-75
2022/12/28 02:37:28;;;;;;;10.70;6.68;;;6.80;99.90;;;;;;5032088;28;20171;-75
2022/12/28 02:40:19;;;;;;;12.18;6.28;;;6.80;99.90;;;;;;5059571;28;20319;-74
2022/12/28 02:42:46;;;;;;;10.75;6.03;;;6.80;99.90;;;;;;5032165;28;20171;-76
2022/12/28 02:51:15;;;;;;;8.85;5.78;;;6.80;99.90;;;;;;5026494;28;20254;-76
2022/12/28 02:53:48;;;;;;;12.55;6.03;;;6.80;99.90;;;;;;5064770;28;20199;-76
2022/12/28 02:56:43;;;;;;;9.32;5.97;;;6.80;99.90;;;;;;5030016;28;20551;-75
2022/12/28 02:59:18;;;;;;;10.48;5.82;;;6.80;99.90;;;;;;5017248;28;20190;-75
2022/12/28 03:02:06;;;;;;;8.25;5.43;;;6.80;99.90;;;;;;5026424;28;20183;-75
2022/12/28 03:05:01;;;;;;;9.10;5.93;;;6.80;99.90;;;;;;5029708;28;20674;-76
2022/12/28 03:08:18;;;;;;;7.88;5.22;;;6.80;99.90;;;;;;5038979;28;20184;-75
2022/12/28 03:10:47;;;;;;;9.95;5.38;;;6.80;99.90;;;;;;5047143;28;20627;-75
2022/12/28 03:13:44;;;;;;;8.20;5.40;;;6.80;99.90;;;;;;5047025;28;20203;-77
2022/12/28 03:25:41;;;;;;;9.90;5.68;;;6.80;99.90;;;;;;5032296;28;20233;-76
2022/12/28 03:33:20;;;;;;;11.07;6.82;;;6.90;99.90;;;;;;5047084;28;20235;-75
2022/12/28 03:36:12;;;;;;;10.50;6.20;;;6.90;99.90;;;;;;5046811;28;20207;-75
2022/12/28 03:38:53;;;;;;;9.10;6.20;;;7.00;99.90;;;;;;5029793;28;20180;-76
2022/12/28 03:41:29;;;;;;;8.30;6.00;;;7.00;99.90;;;;;;5028440;28;20527;-75
2022/12/28 03:44:09;;;;;;;11.60;6.13;;;7.00;99.90;;;;;;5046335;28;20209;-78
2022/12/28 03:47:06;;;;;;;11.95;6.78;;;7.10;99.90;;;;;;5044729;28;20181;-75
2022/12/28 03:49:34;;;;;;;11.50;6.65;;;7.10;99.90;;;;;;5015604;28;20625;-75
2022/12/28 03:52:01;;;;;;;9.27;6.57;;;7.10;99.90;;;;;;5047545;28;20187;-75
2022/12/28 03:54:27;;;;;;;11.23;6.97;;;7.10;99.90;;;;;;5061736;28;20200;-75
2022/12/28 03:56:53;;;;;;;11.35;6.40;;;7.20;99.90;;;;;;5064468;28;20195;-75
2022/12/28 03:59:23;;;;;;;9.57;6.88;;;7.20;99.90;;;;;;5063284;28;20212;-74
2022/12/28 04:01:52;;;;;;;13.05;7.32;;;7.20;99.90;;;;;;5050613;28;20594;-75
2022/12/28 04:04:18;;;;;;;10.88;6.47;;;7.30;99.90;;;;;;5047402;28;20191;-75
2022/12/28 04:06:45;;;;;;;9.32;6.72;;;7.30;99.90;;;;;;5047478;28;20180;-74
2022/12/28 04:09:11;;;;;;;9.45;5.28;;;7.30;99.90;;;;;;5047177;28;20206;-76
2022/12/28 04:11:39;;;;;;;7.45;5.72;;;7.30;99.90;;;;;;5027703;28;20184;-75
2022/12/28 04:14:08;;;;;;;12.48;6.30;;;7.30;99.90;;;;;;5019138;28;20203;-78
2022/12/28 04:16:36;;;;;;;9.05;6.45;;;7.40;99.90;;;;;;5050082;28;20196;-75
2022/12/28 04:19:03;;;;;;;8.02;6.00;;;7.40;99.90;;;;;;5045286;28;20187;-79
2022/12/28 04:21:30;;;;;;;7.25;6.03;;;7.40;99.90;;;;;;5050763;28;20266;-75
2022/12/28 04:23:58;;;;;;;6.38;5.15;;;7.40;99.90;;;;;;5050124;28;20203;-79
2022/12/28 04:26:24;;;;;;;6.93;5.60;;;7.40;99.90;;;;;;5066938;28;20188;-75
2022/12/28 04:28:53;;;;;;;7.82;6.38;;;7.40;99.90;;;;;;5035632;28;20184;-74
2022/12/28 04:31:19;;;;;;;7.03;5.07;;;7.40;99.90;;;;;;5034764;28;20196;-76
2022/12/28 04:33:51;;;;;;;8.52;6.40;;;7.40;99.90;;;;;;5032261;28;20302;-76
2022/12/28 04:36:17;;;;;;;8.20;5.72;;;7.40;99.90;;;;;;5049108;28;20286;-77
2022/12/28 04:38:46;;;;;;;6.47;5.78;;;7.50;99.90;;;;;;5050801;28;20188;-76
2022/12/28 04:41:12;;;;;;;8.48;6.00;;;7.50;99.90;;;;;;5032945;28;20268;-76
2022/12/28 04:43:39;;;;;;;6.68;5.32;;;7.50;99.90;;;;;;5035491;28;20208;-76
2022/12/28 04:46:09;;;;;;;6.78;5.50;;;7.50;99.90;;;;;;5033115;28;20172;-76
2022/12/28 04:48:35;;;;;;;7.25;5.60;;;7.50;99.90;;;;;;5040226;28;20207;-77
2022/12/28 04:51:10;;;;;;;6.55;5.80;;;7.50;99.90;;;;;;5049581;28;20689;-77
2022/12/28 04:53:39;;;;;;;6.82;5.50;;;7.60;99.90;;;;;;5035077;28;20214;-77
2022/12/28 04:56:07;;;;;;;7.95;5.90;;;7.60;99.90;;;;;;5034176;28;20553;-76
2022/12/28 04:58:33;;;;;;;6.28;5.47;;;7.50;99.90;;;;;;5032743;28;20183;-74
2022/12/28 05:01:08;;;;;;;8.18;6.22;;;7.60;99.90;;;;;;5033555;28;20310;-74
2022/12/28 05:03:35;;;;;;;7.43;5.80;;;7.60;99.90;;;;;;5034508;28;20223;-75
2022/12/28 05:06:07;;;;;;;7.57;5.80;;;7.60;99.90;;;;;;5047423;28;20229;-75
2022/12/28 05:08:34;;;;;;;7.55;6.43;;;7.60;99.90;;;;;;5070282;28;20176;-75
2022/12/28 05:11:02;;;;;;;8.45;6.53;;;7.60;99.90;;;;;;5033034;28;20690;-75
2022/12/28 05:13:28;;;;;;;9.50;6.30;;;7.70;99.90;;;;;;5032747;28;20212;-78
2022/12/28 05:15:54;;;;;;;6.97;6.07;;;7.70;99.90;;;;;;5033086;28;20200;-74
2022/12/28 05:18:20;;;;;;;8.65;6.93;;;7.70;99.90;;;;;;5017158;28;20181;-74
2022/12/28 05:20:45;;;;;;;8.35;7.30;;;7.70;99.90;;;;;;5033732;28;20188;-77
2022/12/28 05:23:11;;;;;;;9.23;7.50;;;7.70;99.90;;;;;;5035041;28;20188;-74
2022/12/28 05:25:37;;;;;;;9.32;7.55;;;7.70;99.90;;;;;;5031543;28;20188;-75
2022/12/28 05:28:03;;;;;;;10.88;7.20;;;7.80;99.90;;;;;;5028844;28;20195;-74
2022/12/28 05:30:28;;;;;;;8.38;7.45;;;7.80;99.90;;;;;;5033578;28;20180;-78
2022/12/28 05:32:54;;;;;;;9.13;7.80;;;7.80;99.90;;;;;;5034538;28;20191;-76
2022/12/28 05:35:20;;;;;;;10.80;8.00;;;7.80;99.90;;;;;;5031608;28;20184;-75
2022/12/28 05:37:46;;;;;;;9.90;8.15;;;7.90;99.90;;;;;;5016667;28;20525;-76
2022/12/28 05:40:11;;;;;;;10.27;9.02;;;7.80;99.90;;;;;;5023306;28;20188;-74
2022/12/28 05:42:37;;;;;;;11.68;9.43;;;7.90;99.90;;;;;;5027807;28;20214;-77
2022/12/28 05:45:03;;;;;;;11.65;8.88;;;7.90;99.90;;;;;;5032445;28;20333;-75
2022/12/28 05:47:29;;;;;;;11.88;9.20;;;7.90;99.90;;;;;;5048159;28;20587;-75
2022/12/28 05:49:54;;;;;;;12.55;10.15;;;8.00;99.90;;;;;;5032744;28;20265;-75
2022/12/28 05:52:20;;;;;;;11.45;9.20;;;8.00;99.90;;;;;;5033849;28;20306;-74
2022/12/28 05:54:46;;;;;;;13.63;10.05;;;8.00;99.90;;;;;;5028681;28;20551;-75
2022/12/28 05:57:11;;;;;;;14.82;10.52;;;8.00;99.90;;;;;;5032990;28;20191;-75
2022/12/28 05:59:37;;;;;;;13.85;11.23;;;8.00;99.90;;;;;;5032556;28;20184;-75
2022/12/28 06:02:03;;;;;;;14.68;11.07;;;8.10;99.90;;;;;;5032419;28;20738;-76
2022/12/28 06:04:29;;;;;;;14.65;11.00;;;8.10;99.90;;;;;;5033399;28;20192;-74
2022/12/28 06:06:55;;;;;;;17.27;12.68;;;8.10;99.90;;;;;;5045482;28;20616;-75
2022/12/28 06:09:20;;;;;;;16.15;12.85;;;8.10;99.90;;;;;;5032832;28;20191;-74
2022/12/28 06:11:46;;;;;;;15.88;12.95;;;8.20;99.90;;;;;;5065265;28;20184;-77
2022/12/28 06:14:12;;;;;;;19.45;13.73;;;8.20;99.90;;;;;;5031355;28;20199;-74
2022/12/28 06:16:40;;;;;;;15.90;13.63;;;8.20;99.90;;;;;;5032950;28;20192;-76
2022/12/28 06:19:09;;;;;;;16.58;12.90;;;8.20;99.90;;;;;;5020478;28;20188;-77
2022/12/28 06:21:37;;;;;;;20.02;13.05;;;8.30;99.90;;;;;;5038297;28;20234;-74
2022/12/28 06:24:04;;;;;;;18.05;13.25;;;8.30;99.90;;;;;;5032844;28;20188;-75
2022/12/28 06:26:33;;;;;;;17.23;13.50;;;8.30;99.90;;;;;;5046127;28;20636;-75
2022/12/28 06:29:00;;;;;;;17.73;13.35;;;8.30;99.90;;;;;;5034471;28;20188;-80
2022/12/28 06:31:29;;;;;;;17.27;13.00;;;8.40;99.90;;;;;;5032669;28;20188;-75
2022/12/28 06:33:57;;;;;;;13.00;11.25;;;8.40;99.90;;;;;;5034243;28;20199;-75
2022/12/28 06:36:28;;;;;;;14.90;11.85;;;8.50;99.90;;;;;;5032364;28;20196;-74
2022/12/28 06:38:56;;;;;;;16.85;12.00;;;8.50;99.90;;;;;;5032240;28;20180;-75
2022/12/28 06:41:22;;;;;;;18.58;12.38;;;8.50;99.90;;;;;;5030542;28;20223;-74
2022/12/28 06:43:49;;;;;;;17.73;11.13;;;8.50;99.90;;;;;;5031923;28;20191;-75
2022/12/28 06:46:16;;;;;;;13.48;10.55;;;8.50;99.90;;;;;;5032118;28;20198;-74
2022/12/28 06:48:42;;;;;;;12.25;10.13;;;8.60;99.90;;;;;;5025088;28;20206;-74
2022/12/28 06:51:18;;;;;;;13.88;10.68;;;8.60;99.90;;;;;;5032571;28;20176;-75
2022/12/28 06:53:45;;;;;;;14.98;11.10;;;8.60;99.90;;;;;;5032612;28;20235;-74
2022/12/28 06:56:14;;;;;;;13.80;10.98;;;8.60;99.90;;;;;;5032078;28;20192;-74
2022/12/28 06:58:40;;;;;;;13.20;11.27;;;8.70;99.90;;;;;;5032373;28;20212;-75
2022/12/28 07:01:10;;;;;;;13.70;11.38;;;8.70;99.90;;;;;;5031474;28;20184;-74
2022/12/28 07:03:36;;;;;;;14.57;11.55;;;8.70;99.90;;;;;;5032578;28;20232;-80
2022/12/28 07:06:04;;;;;;;16.73;10.15;;;8.70;99.90;;;;;;5037075;28;20199;-74
2022/12/28 07:08:30;;;;;;;15.38;11.73;;;8.70;99.90;;;;;;5032453;28;20530;-74
2022/12/28 07:11:02;;;;;;;12.77;10.65;;;8.70;99.90;;;;;;5030905;28;20187;-74
2022/12/28 07:13:28;;;;;;;15.73;11.10;;;8.70;99.90;;;;;;5030892;28;20464;-77
2022/12/28 07:15:53;;;;;;;12.90;10.45;;;8.80;99.90;;;;;;5028312;28;20172;-76
2022/12/28 07:18:19;;;;;;;12.30;9.98;;;8.80;99.90;;;;;;5030682;28;20889;-74
2022/12/28 07:20:45;;;;;;;12.55;10.20;;;8.80;99.90;;;;;;5031719;28;20187;-74
2022/12/28 07:23:10;;;;;;;11.55;9.70;;;8.90;99.90;;;;;;5017975;28;20192;-74
2022/12/28 07:25:36;;;;;;;12.90;10.40;;;8.80;99.90;;;;;;5026229;28;20215;-76
2022/12/28 07:28:02;;;;;;;13.38;10.48;;;8.80;99.90;;;;;;5030958;28;20202;-74
2022/12/28 07:30:28;;;;;;;15.20;10.95;;;8.90;99.90;;;;;;5063622;28;20191;-76
2022/12/28 07:32:53;;;;;;;12.20;10.63;;;8.90;99.90;;;;;;5064557;28;20176;-74
2022/12/28 07:35:19;;;;;;;16.27;10.30;;;8.90;99.90;;;;;;5031359;28;20691;-75
2022/12/28 07:37:45;;;;;;;14.15;10.30;;;8.90;99.90;;;;;;5030731;28;20492;-75
2022/12/28 07:40:11;;;;;;;15.90;11.55;;;8.90;99.90;;;;;;5029716;28;20532;-74
2022/12/28 07:42:36;;;;;;;16.13;11.90;;;8.90;99.90;;;;;;5027558;28;20275;-73
2022/12/28 07:45:07;;;;;;;14.82;11.50;;;9.00;99.90;;;;;;5031389;28;20567;-74
2022/12/28 07:47:34;;;;;;;14.93;11.60;;;9.00;99.90;;;;;;5031803;28;20183;-74
2022/12/28 07:50:00;;;;;;;19.30;12.40;;;9.00;99.90;;;;;;5030093;28;20314;-74
2022/12/28 07:52:25;;;;;;;15.32;11.95;;;9.00;99.90;;;;;;5035864;28;20211;-74
2022/12/28 07:54:51;;;;;;;17.52;12.10;;;9.10;99.90;;;;;;5047872;28;20208;-74
2022/12/28 07:57:17;;;;;;;21.92;12.20;;;9.10;99.90;;;;;;5035823;28;20242;-75
2022/12/28 07:59:42;;;;;;;20.48;11.82;;;9.10;99.90;;;;;;5050504;28;20655;-75
2022/12/28 08:02:09;;;;;;;19.63;11.13;;;9.10;99.90;;;;;;5035600;28;20595;-74
2022/12/28 08:04:35;;;;;;;17.55;11.55;;;9.20;99.90;;;;;;5030128;28;20184;-77
2022/12/28 08:07:01;;;;;;;15.57;12.02;;;9.20;99.90;;;;;;5088029;28;20187;-74
2022/12/28 08:09:26;;;;;;;18.23;13.00;;;9.20;99.90;;;;;;5053278;28;20189;-77
2022/12/28 08:11:52;;;;;;;19.52;13.43;;;9.20;99.90;;;;;;5066847;28;20188;-76
2022/12/28 08:14:18;;;;;;;17.77;12.68;;;9.20;99.90;;;;;;5033608;28;20219;-77
2022/12/28 08:16:44;;;;;;;15.07;11.40;;;9.30;99.90;;;;;;5035189;28;20188;-77
2022/12/28 08:19:10;;;;;;;19.38;13.35;;;9.30;99.90;;;;;;5033598;28;20635;-78
2022/12/28 08:21:42;;;;;;;16.17;13.38;;;9.30;99.90;;;;;;5032132;28;20662;-80
2022/12/28 08:24:12;;;;;;;17.25;12.23;;;9.40;99.90;;;;;;5029182;28;20199;-77
2022/12/28 08:26:39;;;;;;;16.52;12.90;;;9.40;99.90;;;;;;5018772;28;20184;-77
2022/12/28 08:29:08;;;;;;;19.13;13.57;;;9.40;99.90;;;;;;5031144;28;20181;-77
2022/12/28 08:31:36;;;;;;;18.40;13.73;;;9.40;99.90;;;;;;5034686;28;20191;-77
2022/12/28 08:34:04;;;;;;;18.42;15.55;;;9.40;99.90;;;;;;5031582;28;20204;-79
2022/12/28 08:36:30;;;;;;;20.60;14.73;;;9.40;99.90;;;;;;5034597;28;20192;-77
2022/12/28 08:38:56;;;;;;;19.98;15.10;;;9.40;99.90;;;;;;5035212;28;20693;-77
2022/12/28 08:41:23;;;;;;;17.77;13.88;;;9.40;99.90;;;;;;5031835;28;20354;-76
2022/12/28 08:43:50;;;;;;;18.13;14.70;;;9.40;99.90;;;;;;5022096;28;20187;-76
2022/12/28 08:46:17;;;;;;;22.17;14.43;;;9.40;99.90;;;;;;5034195;28;20230;-77
2022/12/28 08:48:44;;;;;;;20.30;14.43;;;9.40;99.90;;;;;;5035721;28;20284;-76
2022/12/28 08:51:16;;;;;;;16.67;13.00;;;9.50;99.90;;;;;;5033234;28;20231;-80
2022/12/28 08:53:42;;;;;;;17.05;13.20;;;9.50;99.90;;;;;;5047200;28;20599;-76
2022/12/28 08:56:31;;;;;;;15.95;13.32;;;9.50;99.90;;;;;;5026460;28;20266;-76
2022/12/28 08:58:58;;;;;;;13.30;11.85;;;9.50;99.90;;;;;;5031956;28;20180;-77
2022/12/28 09:01:32;;;;;;;15.20;10.70;;;9.50;99.90;;;;;;5034654;28;20187;-76
2022/12/28 09:03:59;;;;;;;13.70;9.85;;;9.50;99.90;;;;;;5061493;28;20179;-77
2022/12/28 09:06:37;;;;;;;12.90;9.07;;;9.50;99.90;;;;;;5065849;28;20237;-77
2022/12/28 09:09:05;;;;;;;8.65;7.75;;;9.60;99.90;;;;;;5017591;28;20195;-77
2022/12/28 09:11:33;;;;;;;9.95;8.32;;;9.50;99.90;;;;;;5036879;28;20234;-78
2022/12/28 09:14:00;;;;;;;9.82;7.72;;;9.60;99.90;;;;;;5031886;28;20212;-77
2022/12/28 09:16:27;;;;;;;10.48;7.10;;;9.60;99.90;;;;;;5022142;28;20187;-77
2022/12/28 09:18:55;;;;;;;6.18;5.57;;;9.60;99.90;;;;;;5021846;28;20188;-77
2022/12/28 09:21:24;;;;;;;6.95;6.15;;;9.60;99.90;;;;;;5032066;28;20644;-77
2022/12/28 09:23:50;;;;;;;6.63;5.50;;;9.60;99.90;;;;;;5034515;28;20184;-78
2022/12/28 09:26:22;;;;;;;6.25;5.65;;;9.60;99.90;;;;;;5023740;28;20623;-79
2022/12/28 09:28:55;;;;;;;5.97;5.38;;;9.60;99.90;;;;;;5028481;28;20180;-79
2022/12/28 09:31:24;;;;;;;5.82;5.25;;;9.60;99.90;;;;;;5032893;28;20179;-78
2022/12/28 09:34:00;;;;;;;5.78;5.18;;;9.60;99.90;;;;;;5043062;28;20202;-77
2022/12/28 09:36:39;;;;;;;6.30;5.15;;;9.60;99.90;;;;;;5022426;28;20183;-77
2022/12/28 09:39:17;;;;;;;6.40;5.72;;;9.60;99.90;;;;;;5014181;28;20267;-77
2022/12/28 09:42:09;;;;;;;6.72;5.72;;;9.60;99.90;;;;;;5032390;28;20180;-77
2022/12/28 09:44:57;;;;;;;7.35;6.55;;;9.60;99.90;;;;;;5030349;28;20192;-78
2022/12/28 09:47:46;;;;;;;8.80;6.78;;;9.60;99.90;;;;;;5020813;28;20188;-78
2022/12/28 09:50:17;;;;;;;7.72;6.93;;;9.60;99.90;;;;;;5033016;28;20254;-78
2022/12/28 09:53:02;;;;;;;8.45;6.03;;;9.70;99.90;;;;;;5026598;28;20180;-77
2022/12/28 09:55:29;;;;;;;7.65;6.60;;;9.60;99.90;;;;;;5017384;28;20204;-77
2022/12/28 09:57:56;;;;;;;8.40;6.80;;;9.60;99.90;;;;;;5014103;28;20280;-80
2022/12/28 10:00:25;;;;;;;7.78;6.70;;;9.60;99.90;;;;;;5024879;28;20188;-77
2022/12/28 10:02:57;;;;;;;7.38;6.55;;;9.70;99.90;;;;;;5033198;28;20225;-77
2022/12/28 10:05:23;;;;;;;7.15;6.28;;;9.70;99.90;;;;;;5041567;28;20178;-81
2022/12/28 10:07:51;;;;;;;8.43;6.25;;;9.70;99.90;;;;;;5016358;28;20192;-80
2022/12/28 10:10:19;;;;;;;6.82;6.13;;;9.70;99.90;;;;;;5015994;28;20184;-77
2022/12/28 10:12:47;;;;;;;7.57;6.78;;;9.70;99.90;;;;;;5032547;28;20183;-77
2022/12/28 10:15:14;;;;;;;7.53;6.70;;;9.80;99.90;;;;;;5019398;28;20686;-78
2022/12/28 10:17:40;;;;;;;7.57;6.70;;;9.80;99.90;;;;;;5028250;28;20216;-78
2022/12/28 10:20:13;;;;;;;7.47;6.68;;;9.80;99.90;;;;;;5030306;28;20188;-77
2022/12/28 10:22:41;;;;;;;7.38;6.30;;;9.80;99.90;;;;;;5020413;28;20191;-76
2022/12/28 10:25:16;;;;;;;7.10;5.72;;;9.80;99.90;;;;;;5031266;28;20545;-77
2022/12/28 10:27:42;;;;;;;7.28;6.28;;;9.80;99.90;;;;;;5031658;28;20198;-77
2022/12/28 10:30:25;;;;;;;6.88;6.03;;;9.80;99.90;;;;;;5032102;28;20184;-76
2022/12/28 10:32:58;;;;;;;7.63;6.68;;;9.80;99.90;;;;;;5023462;28;20204;-76
2022/12/28 10:35:34;;;;;;;9.73;6.32;;;9.80;99.90;;;;;;5041237;28;20222;-81
2022/12/28 10:38:04;;;;;;;7.63;6.32;;;9.80;99.90;;;;;;5016233;28;20179;-82
2022/12/28 10:40:35;;;;;;;7.65;6.53;;;9.80;99.90;;;;;;5026252;28;20792;-77
2022/12/28 10:43:02;;;;;;;6.82;6.13;;;9.80;99.90;;;;;;5031391;28;20176;-76
2022/12/28 10:45:54;;;;;;;7.32;6.40;;;9.80;99.90;;;;;;5031293;28;20184;-80
2022/12/28 10:48:33;;;;;;;8.25;6.97;;;9.80;99.90;;;;;;5012635;28;20204;-76
2022/12/28 10:51:14;;;;;;;9.90;7.03;;;9.80;99.90;;;;;;5029862;28;20184;-78
2022/12/28 10:53:53;;;;;;;8.32;6.93;;;9.90;99.90;;;;;;5032786;28;20298;-79
2022/12/28 10:56:21;;;;;;;10.52;7.43;;;9.80;99.90;;;;;;5030458;28;20176;-74
2022/12/28 10:59:13;;;;;;;10.63;6.90;;;9.80;99.90;;;;;;5025506;28;20191;-74
2022/12/28 11:01:41;;;;;;;9.60;7.22;;;9.80;99.90;;;;;;5012656;28;20184;-74
2022/12/28 11:04:16;;;;;;;8.95;7.50;;;9.80;99.90;;;;;;5018706;28;20172;-74
2022/12/28 11:06:53;;;;;;;9.10;6.90;;;9.80;99.90;;;;;;5037955;28;20222;-75
2022/12/28 11:09:21;;;;;;;10.30;7.82;;;9.90;99.90;;;;;;5016580;28;21052;-75
2022/12/28 11:11:48;;;;;;;9.93;7.63;;;9.90;99.90;;;;;;5031757;28;20259;-74
2022/12/28 11:14:33;;;;;;;7.30;6.47;;;9.80;99.90;;;;;;5031459;28;20230;-74
2022/12/28 11:17:19;;;;;;;7.93;5.63;;;9.90;99.90;;;;;;5032067;28;20191;-75
2022/12/28 11:19:47;;;;;;;7.07;5.88;;;9.80;99.90;;;;;;5020961;28;20168;-75
2022/12/28 11:22:19;;;;;;;7.70;6.00;;;9.80;99.90;;;;;;5030096;28;20200;-75
2022/12/28 11:24:45;;;;;;;7.55;5.78;;;9.90;99.90;;;;;;5031395;28;20309;-75
2022/12/28 11:27:18;;;;;;;7.60;5.60;;;9.90;99.90;;;;;;5034409;28;20684;-81
2022/12/28 11:29:50;;;;;;;7.63;5.32;;;9.90;99.90;;;;;;5019720;28;20227;-78
2022/12/28 11:32:19;;;;;;;5.53;4.57;;;9.90;99.90;;;;;;5034400;28;20278;-75
2022/12/28 11:34:45;;;;;;;5.88;5.05;;;9.90;99.90;;;;;;5024403;28;20249;-75
2022/12/28 11:37:14;;;;;;;8.43;4.80;;;9.90;99.90;;;;;;5035861;28;20184;-75
2022/12/28 11:39:48;;;;;;;5.40;4.65;;;9.90;99.90;;;;;;5023058;28;20270;-76
2022/12/28 11:42:37;;;;;;;6.00;4.55;;;9.90;99.90;;;;;;5032553;28;20179;-75
2022/12/28 11:45:10;;;;;;;4.45;4.05;;;9.90;99.90;;;;;;5028852;28;20188;-74
2022/12/28 11:47:36;;;;;;;5.85;4.32;;;9.90;99.90;;;;;;5035706;28;20164;-74
2022/12/28 11:50:35;;;;;;;6.53;4.28;;;9.90;99.90;;;;;;5026417;28;20192;-75
2022/12/28 11:53:02;;;;;;;5.03;3.83;;;9.90;99.90;;;;;;5018414;28;20195;-75
2022/12/28 11:55:38;;;;;;;4.20;3.80;;;9.90;99.90;;;;;;5034026;28;20241;-76
2022/12/28 11:58:39;;;;;;;4.35;3.95;;;9.90;99.90;;;;;;5031889;28;20266;-75
2022/12/28 12:01:09;;;;;;;4.50;4.10;;;9.90;99.90;;;;;;5031871;28;20184;-73
2022/12/28 12:03:58;;;;;;;6.18;4.47;;;9.90;99.90;;;;;;5035468;28;20315;-74
2022/12/28 12:06:42;;;;;;;5.80;4.40;;;9.90;99.90;;;;;;5002400;28;20758;-76
2022/12/28 12:09:37;;;;;;;4.90;4.40;;;9.90;99.90;;;;;;5034550;28;20180;-75
2022/12/28 12:12:14;;;;;;;5.10;4.30;;;9.90;99.90;;;;;;5015672;28;20173;-76
2022/12/28 12:14:42;;;;;;;4.85;4.22;;;10.00;99.90;;;;;;5035939;28;20211;-80
2022/12/28 12:17:30;;;;;;;5.10;4.57;;;9.90;99.90;;;;;;5037296;28;20250;-76
2022/12/28 12:20:00;;;;;;;5.82;4.97;;;10.00;99.90;;;;;;5034636;28;20530;-76
2022/12/28 12:22:33;;;;;;;6.53;4.70;;;10.00;99.90;;;;;;5034579;28;20226;-75
2022/12/28 12:25:36;;;;;;;5.95;5.35;;;10.00;99.90;;;;;;5022972;28;20230;-75
2022/12/28 12:28:39;;;;;;;5.68;4.85;;;9.90;99.90;;;;;;5030297;28;20180;-76
2022/12/28 12:31:14;;;;;;;5.70;4.85;;;9.90;99.90;;;;;;5033683;28;20171;-74
2022/12/28 12:33:45;;;;;;;6.20;5.40;;;9.90;99.90;;;;;;5034147;28;20203;-74
2022/12/28 12:36:22;;;;;;;6.57;4.80;;;9.90;99.90;;;;;;5024641;28;20255;-75
2022/12/28 12:39:14;;;;;;;5.13;4.07;;;9.90;99.90;;;;;;5035702;28;20667;-76
2022/12/28 12:42:15;;;;;;;6.72;4.70;;;9.90;99.90;;;;;;5033523;28;20176;-75
2022/12/28 12:45:01;;;;;;;5.10;4.50;;;9.90;99.90;;;;;;5043015;28;20566;-74
2022/12/28 12:47:49;;;;;;;4.85;4.20;;;9.90;99.90;;;;;;5021548;28;20176;-74
2022/12/28 12:50:20;;;;;;;5.30;4.80;;;10.00;99.90;;;;;;5062976;28;20179;-76
2022/12/28 12:53:29;;;;;;;4.53;3.85;;;10.00;99.90;;;;;;5015503;28;20200;-75
2022/12/28 12:56:06;;;;;;;4.60;3.88;;;9.90;99.90;;;;;;5024087;28;20242;-79
2022/12/28 12:58:51;;;;;;;5.18;3.80;;;9.90;99.90;;;;;;5026283;28;20190;-75
2022/12/28 13:01:35;;;;;;;4.47;3.88;;;9.90;99.90;;;;;;5035841;28;20199;-78
2022/12/28 13:04:24;;;;;;;4.10;3.70;;;9.90;99.90;;;;;;5028983;28;20694;-75
2022/12/28 13:06:59;;;;;;;4.80;3.55;;;10.00;99.90;;;;;;5050720;28;20157;-74
2022/12/28 13:09:27;;;;;;;4.65;3.30;;;9.90;99.90;;;;;;5034028;28;20191;-74
2022/12/28 13:11:53;;;;;;;4.38;3.10;;;9.90;99.90;;;;;;5055093;28;20180;-79
2022/12/28 13:14:22;;;;;;;6.95;4.50;;;9.90;99.90;;;;;;5031670;28;20316;-74
2022/12/28 13:16:50;;;;;;;2.72;2.53;;;9.90;99.90;;;;;;5034763;28;20184;-74
2022/12/28 13:19:25;;;;;;;3.50;3.10;;;9.90;99.90;;;;;;5065776;28;20637;-75
2022/12/28 13:21:52;;;;;;;3.95;3.30;;;10.00;99.90;;;;;;5030580;28;20194;-78
2022/12/28 13:24:26;;;;;;;4.63;3.50;;;9.90;99.90;;;;;;5017607;28;20192;-74
2022/12/28 13:26:52;;;;;;;4.40;3.80;;;9.90;99.90;;;;;;5033553;28;20180;-75
2022/12/28 13:29:23;;;;;;;4.57;4.05;;;9.90;99.90;;;;;;5033898;28;20187;-75
2022/12/28 13:31:51;;;;;;;6.47;4.60;;;9.90;99.90;;;;;;5031696;28;20172;-75